Time;durP1;ratioP1;P1;durP2;ratioP2;P2;SDS_P1;SDS_P2;PMS_P1;PMS_P2;Temp;Humidity;BMP_temperature;BMP_pressure;BME280_temperature;BME280_humidity;BME280_pressure;Samples;Min_cycle;Max_cycle;Signal;HPM_P1;HPM_P2
2023/01/05 00:01:54;;;;;;;19.17;12.57;;;;;;;;;;5118361;28;20207;-60
2023/01/05 00:04:22;;;;;;;18.97;13.40;;;;;;;;;;5118271;28;20232;-60
2023/01/05 00:06:51;;;;;;;19.57;13.57;;;;;;;;;;5118389;28;20270;-60
2023/01/05 00:09:22;;;;;;;21.93;13.87;;;;;;;;;;5118206;28;20201;-60
2023/01/05 00:22:59;;;;;;;21.53;14.63;;;;;;;;;;5118252;28;20217;-60
2023/01/05 00:25:28;;;;;;;21.87;15.20;;;;;;;;;;5118200;28;20205;-60
2023/01/05 00:27:57;;;;;;;22.07;15.87;;;;;;;;;;5118372;28;20288;-60
2023/01/05 00:30:27;;;;;;;21.73;15.03;;;;;;;;;;5116938;28;20211;-60
2023/01/05 00:32:55;;;;;;;26.90;16.97;;;;;;;;;;5117212;28;20256;-60
2023/01/05 00:35:23;;;;;;;22.47;15.70;;;;;;;;;;5118077;28;20204;-60
2023/01/05 00:37:51;;;;;;;24.07;15.47;;;;;;;;;;5117845;28;20732;-60
2023/01/05 00:40:20;;;;;;;24.20;14.87;;;;;;;;;;5118104;28;20201;-60
2023/01/05 00:42:48;;;;;;;22.53;15.17;;;;;;;;;;5118001;28;20213;-60
2023/01/05 00:45:20;;;;;;;29.03;15.67;;;;;;;;;;5117867;28;20209;-60
2023/01/05 00:47:50;;;;;;;23.33;16.90;;;;;;;;;;5116960;28;20216;-60
2023/01/05 00:50:19;;;;;;;23.20;15.10;;;;;;;;;;5117457;28;20212;-60
2023/01/05 00:52:47;;;;;;;23.07;15.57;;;;;;;;;;5117368;28;20229;-59
2023/01/05 00:55:15;;;;;;;21.13;15.33;;;;;;;;;;5112665;28;20233;-60
2023/01/05 00:57:44;;;;;;;22.50;16.13;;;;;;;;;;5117559;28;20268;-60
2023/01/05 01:00:13;;;;;;;22.87;14.87;;;;;;;;;;5117802;28;20209;-60
2023/01/05 01:02:43;;;;;;;24.77;15.10;;;;;;;;;;5117676;28;20225;-60
2023/01/05 01:05:11;;;;;;;20.33;15.47;;;;;;;;;;5116771;28;20228;-57
2023/01/05 01:07:39;;;;;;;21.00;14.70;;;;;;;;;;5117479;28;20201;-59
2023/01/05 01:10:08;;;;;;;25.37;15.57;;;;;;;;;;5117759;28;20240;-60
2023/01/05 01:12:36;;;;;;;22.07;15.27;;;;;;;;;;5117727;28;20232;-59
2023/01/05 01:15:04;;;;;;;19.33;15.17;;;;;;;;;;5118117;28;20254;-62
2023/01/05 01:17:32;;;;;;;19.13;14.73;;;;;;;;;;5117893;28;20201;-58
2023/01/05 01:20:02;;;;;;;23.33;15.07;;;;;;;;;;5117735;28;20205;-60
2023/01/05 01:22:30;;;;;;;21.20;14.73;;;;;;;;;;5116438;28;20208;-59
2023/01/05 01:24:58;;;;;;;25.27;15.80;;;;;;;;;;5106367;28;20212;-59
2023/01/05 01:27:26;;;;;;;23.10;16.10;;;;;;;;;;5115711;28;20593;-59
2023/01/05 01:29:54;;;;;;;24.10;15.33;;;;;;;;;;5119910;28;20239;-60
2023/01/05 01:32:23;;;;;;;22.63;15.70;;;;;;;;;;5121247;28;20256;-60
2023/01/05 01:34:51;;;;;;;21.10;15.90;;;;;;;;;;5121376;27;20243;-58
2023/01/05 01:37:20;;;;;;;23.10;15.43;;;;;;;;;;5120820;28;20211;-58
2023/01/05 01:39:48;;;;;;;24.17;14.73;;;;;;;;;;5120348;28;20207;-59
2023/01/05 01:42:17;;;;;;;20.60;14.77;;;;;;;;;;5121076;28;20228;-60
2023/01/05 01:44:49;;;;;;;20.73;14.80;;;;;;;;;;5120827;28;20293;-60
2023/01/05 01:47:20;;;;;;;18.10;13.37;;;;;;;;;;5120974;28;20212;-60
2023/01/05 01:49:48;;;;;;;22.10;15.57;;;;;;;;;;5120897;28;20212;-59
2023/01/05 01:52:16;;;;;;;18.17;14.13;;;;;;;;;;5120410;28;20259;-60
2023/01/05 01:54:46;;;;;;;17.50;14.20;;;;;;;;;;5114106;28;20228;-59
2023/01/05 01:57:15;;;;;;;20.17;13.97;;;;;;;;;;5119644;28;20576;-60
2023/01/05 01:59:43;;;;;;;20.27;14.77;;;;;;;;;;5120815;28;20205;-59
2023/01/05 02:02:12;;;;;;;23.07;14.37;;;;;;;;;;5120897;28;20283;-59
2023/01/05 02:04:40;;;;;;;21.57;14.50;;;;;;;;;;5120574;28;20224;-58
2023/01/05 02:07:09;;;;;;;23.70;14.17;;;;;;;;;;5120326;28;20200;-59
2023/01/05 02:09:38;;;;;;;22.67;14.43;;;;;;;;;;5120450;28;20288;-60
2023/01/05 02:12:15;;;;;;;20.87;14.60;;;;;;;;;;5119134;28;20312;-58
2023/01/05 02:14:49;;;;;;;21.47;14.03;;;;;;;;;;5116035;28;20562;-59
2023/01/05 02:17:23;;;;;;;19.60;13.93;;;;;;;;;;5120499;27;20292;-59
2023/01/05 02:20:10;;;;;;;18.63;13.00;;;;;;;;;;5120247;28;20219;-59
2023/01/05 02:22:54;;;;;;;17.43;12.50;;;;;;;;;;5119698;28;20255;-58
2023/01/05 02:25:33;;;;;;;22.30;14.00;;;;;;;;;;5120070;28;20201;-59
2023/01/05 02:28:10;;;;;;;20.27;14.43;;;;;;;;;;5120316;28;20205;-60
2023/01/05 02:30:58;;;;;;;21.10;12.87;;;;;;;;;;5119238;28;20196;-60
2023/01/05 02:33:29;;;;;;;19.83;13.60;;;;;;;;;;5119945;28;20229;-60
2023/01/05 02:35:58;;;;;;;17.47;13.17;;;;;;;;;;5120147;28;20216;-59
2023/01/05 02:38:32;;;;;;;16.30;13.17;;;;;;;;;;5119585;28;20205;-59
2023/01/05 02:41:04;;;;;;;17.70;13.03;;;;;;;;;;5119623;28;20258;-59
2023/01/05 02:43:32;;;;;;;19.70;13.33;;;;;;;;;;5119601;28;20744;-60
2023/01/05 02:46:01;;;;;;;19.13;12.77;;;;;;;;;;5119941;28;20208;-59
2023/01/05 02:48:30;;;;;;;18.67;13.30;;;;;;;;;;5118006;28;20200;-59
2023/01/05 02:51:01;;;;;;;18.07;11.97;;;;;;;;;;5119811;28;20208;-60
2023/01/05 02:53:31;;;;;;;21.57;13.17;;;;;;;;;;5118833;28;20225;-59
2023/01/05 02:56:01;;;;;;;22.23;13.50;;;;;;;;;;5119742;28;20205;-59
2023/01/05 02:58:31;;;;;;;16.83;12.77;;;;;;;;;;5119534;28;20241;-60
2023/01/05 03:01:03;;;;;;;18.20;13.20;;;;;;;;;;5119903;28;20197;-59
2023/01/05 03:03:34;;;;;;;21.37;13.77;;;;;;;;;;5118224;28;20217;-60
2023/01/05 03:06:04;;;;;;;16.90;12.27;;;;;;;;;;5119320;28;20227;-59
2023/01/05 03:08:33;;;;;;;22.00;13.87;;;;;;;;;;5119022;28;20205;-60
2023/01/05 03:13:51;;;;;;;19.50;12.70;;;;;;;;;;5111076;28;20297;-60
2023/01/05 03:16:22;;;;;;;20.27;12.93;;;;;;;;;;5119376;27;20671;-60
2023/01/05 03:35:37;;;;;;;16.97;13.00;;;;;;;;;;5111056;28;20204;-60
2023/01/05 03:38:10;;;;;;;17.33;12.63;;;;;;;;;;5116770;28;20682;-60
2023/01/05 03:40:45;;;;;;;20.03;13.33;;;;;;;;;;5117994;28;20209;-60
2023/01/05 03:43:13;;;;;;;18.27;13.17;;;;;;;;;;5118948;28;20252;-60
2023/01/05 03:45:43;;;;;;;16.67;13.00;;;;;;;;;;5118851;28;20232;-60
2023/01/05 03:48:12;;;;;;;17.33;13.13;;;;;;;;;;5118473;28;20236;-60
2023/01/05 03:50:40;;;;;;;17.90;12.63;;;;;;;;;;5118335;28;20233;-60
2023/01/05 03:53:08;;;;;;;17.53;13.00;;;;;;;;;;5117634;28;20696;-60
2023/01/05 03:55:36;;;;;;;21.50;13.50;;;;;;;;;;5109860;28;20222;-60
2023/01/05 03:58:04;;;;;;;16.73;12.37;;;;;;;;;;5118182;28;20266;-60
2023/01/05 04:00:32;;;;;;;18.00;13.13;;;;;;;;;;5118589;28;20200;-60
2023/01/05 04:03:00;;;;;;;16.80;12.43;;;;;;;;;;5118418;28;20221;-60
2023/01/05 04:05:30;;;;;;;22.20;12.43;;;;;;;;;;5109466;28;20201;-60
2023/01/05 04:07:58;;;;;;;17.87;13.03;;;;;;;;;;5118011;28;20216;-59
2023/01/05 04:10:26;;;;;;;17.30;12.70;;;;;;;;;;5118342;28;20231;-60
2023/01/05 04:12:54;;;;;;;16.30;11.87;;;;;;;;;;5117516;28;20221;-59
2023/01/05 04:15:22;;;;;;;18.13;12.53;;;;;;;;;;5113996;28;20204;-60
2023/01/05 04:17:50;;;;;;;15.00;11.53;;;;;;;;;;5117065;28;20650;-60
2023/01/05 04:20:18;;;;;;;17.33;12.53;;;;;;;;;;5118215;28;20239;-59
2023/01/05 04:22:47;;;;;;;18.03;12.47;;;;;;;;;;5118060;28;20235;-60
2023/01/05 04:25:15;;;;;;;16.07;12.67;;;;;;;;;;5118107;28;20675;-60
2023/01/05 04:27:43;;;;;;;20.53;13.20;;;;;;;;;;5118419;28;20205;-60
2023/01/05 04:30:11;;;;;;;16.30;13.23;;;;;;;;;;5117115;28;20308;-60
2023/01/05 04:32:39;;;;;;;20.37;13.13;;;;;;;;;;5117912;28;20634;-60
2023/01/05 04:35:08;;;;;;;19.80;13.33;;;;;;;;;;5117748;28;20252;-60
2023/01/05 04:37:38;;;;;;;17.90;12.83;;;;;;;;;;5117845;28;20212;-60
2023/01/05 04:40:08;;;;;;;17.70;13.10;;;;;;;;;;5117984;28;20553;-58
2023/01/05 04:42:36;;;;;;;18.03;12.83;;;;;;;;;;5118211;28;20221;-58
2023/01/05 04:45:05;;;;;;;18.60;12.57;;;;;;;;;;5116512;28;20567;-58
2023/01/05 04:47:33;;;;;;;17.73;13.30;;;;;;;;;;5113195;28;20201;-58
2023/01/05 04:50:01;;;;;;;18.43;13.10;;;;;;;;;;5116964;28;20205;-58
2023/01/05 04:52:29;;;;;;;18.17;12.87;;;;;;;;;;5116157;28;20678;-58
2023/01/05 04:54:57;;;;;;;17.77;12.83;;;;;;;;;;5114917;28;20221;-58
2023/01/05 04:57:27;;;;;;;16.40;13.00;;;;;;;;;;5116504;28;20200;-57
2023/01/05 04:59:55;;;;;;;17.20;12.80;;;;;;;;;;5114546;28;20294;-58
2023/01/05 05:02:23;;;;;;;19.73;13.77;;;;;;;;;;5117567;28;20559;-58
2023/01/05 05:04:51;;;;;;;16.70;13.83;;;;;;;;;;5118326;28;20212;-59
2023/01/05 05:07:19;;;;;;;20.70;14.10;;;;;;;;;;5117562;28;20660;-58
2023/01/05 05:09:47;;;;;;;19.83;12.20;;;;;;;;;;5116853;28;20236;-58
2023/01/05 05:12:19;;;;;;;17.73;13.10;;;;;;;;;;5121236;28;20201;-60
2023/01/05 05:14:48;;;;;;;20.37;13.43;;;;;;;;;;5114329;28;20752;-59
2023/01/05 05:17:16;;;;;;;18.93;13.10;;;;;;;;;;5107316;28;20202;-60
2023/01/05 05:19:44;;;;;;;16.27;11.70;;;;;;;;;;5106327;28;20206;-58
2023/01/05 05:22:12;;;;;;;15.47;12.73;;;;;;;;;;5110816;28;20273;-59
2023/01/05 05:24:40;;;;;;;16.17;12.37;;;;;;;;;;5118465;28;21252;-58
2023/01/05 05:27:08;;;;;;;17.83;13.00;;;;;;;;;;5121080;28;20250;-58
2023/01/05 05:29:36;;;;;;;20.70;13.07;;;;;;;;;;5118993;28;20209;-59
2023/01/05 05:32:06;;;;;;;17.63;12.53;;;;;;;;;;5121218;28;20212;-59
2023/01/05 05:34:34;;;;;;;20.73;13.17;;;;;;;;;;5119825;28;20308;-60
2023/01/05 05:37:02;;;;;;;17.37;12.57;;;;;;;;;;5120683;28;20710;-60
2023/01/05 05:39:30;;;;;;;15.80;12.43;;;;;;;;;;5121033;28;20261;-59
2023/01/05 05:41:58;;;;;;;19.50;12.97;;;;;;;;;;5120899;28;20563;-60
2023/01/05 05:44:26;;;;;;;19.80;13.27;;;;;;;;;;5120821;28;20568;-59
2023/01/05 05:46:54;;;;;;;31.00;19.23;;;;;;;;;;5120853;28;20663;-60
2023/01/05 05:49:24;;;;;;;21.40;14.23;;;;;;;;;;5117748;28;20212;-59
2023/01/05 05:51:52;;;;;;;18.87;13.27;;;;;;;;;;5112344;28;20227;-59
2023/01/05 05:54:19;;;;;;;17.43;12.10;;;;;;;;;;5116933;28;20236;-59
2023/01/05 05:56:48;;;;;;;20.07;13.10;;;;;;;;;;5114549;28;20197;-60
2023/01/05 05:59:16;;;;;;;19.33;13.57;;;;;;;;;;5120052;27;20666;-59
2023/01/05 06:01:44;;;;;;;16.03;11.87;;;;;;;;;;5119190;28;20193;-59
2023/01/05 06:04:12;;;;;;;17.20;13.23;;;;;;;;;;5114266;28;20224;-60
2023/01/05 06:06:41;;;;;;;18.67;12.80;;;;;;;;;;5102777;28;20212;-59
2023/01/05 06:09:09;;;;;;;17.43;12.73;;;;;;;;;;5116714;27;20223;-60
2023/01/05 06:11:37;;;;;;;17.17;12.63;;;;;;;;;;5114450;28;20212;-59
2023/01/05 06:14:06;;;;;;;18.50;12.77;;;;;;;;;;5116702;28;20225;-59
2023/01/05 06:16:34;;;;;;;19.97;12.97;;;;;;;;;;5117222;28;20193;-60
2023/01/05 06:19:02;;;;;;;18.50;12.90;;;;;;;;;;5116460;28;20316;-60
2023/01/05 06:21:30;;;;;;;20.10;12.80;;;;;;;;;;5116045;28;20538;-59
2023/01/05 06:24:00;;;;;;;16.47;12.67;;;;;;;;;;5114405;28;20251;-59
2023/01/05 06:26:28;;;;;;;17.97;12.40;;;;;;;;;;5114411;28;20639;-60
2023/01/05 06:28:56;;;;;;;17.80;12.20;;;;;;;;;;5118127;28;20232;-59
2023/01/05 06:31:24;;;;;;;16.93;12.03;;;;;;;;;;5116018;28;20197;-60
2023/01/05 06:33:52;;;;;;;17.53;13.23;;;;;;;;;;5114857;28;20236;-59
2023/01/05 06:36:20;;;;;;;16.37;11.87;;;;;;;;;;5117212;28;20196;-59
2023/01/05 06:38:48;;;;;;;16.00;12.97;;;;;;;;;;5109880;28;20228;-59
2023/01/05 06:41:17;;;;;;;17.20;12.33;;;;;;;;;;5118219;28;20205;-59
2023/01/05 06:43:45;;;;;;;17.77;12.30;;;;;;;;;;5118709;28;20221;-59
2023/01/05 06:46:13;;;;;;;19.87;12.77;;;;;;;;;;5118850;28;20196;-60
2023/01/05 06:48:41;;;;;;;17.80;13.13;;;;;;;;;;5115867;28;20664;-60
2023/01/05 06:51:09;;;;;;;16.47;12.67;;;;;;;;;;5115663;28;20216;-60
2023/01/05 06:53:37;;;;;;;21.03;14.13;;;;;;;;;;5118993;28;20835;-60
2023/01/05 06:56:06;;;;;;;19.30;13.80;;;;;;;;;;5110951;28;20226;-60
2023/01/05 06:58:35;;;;;;;20.00;13.07;;;;;;;;;;5119115;28;20270;-59
2023/01/05 07:01:03;;;;;;;22.53;13.70;;;;;;;;;;5119381;28;20288;-60
2023/01/05 07:03:31;;;;;;;17.33;12.87;;;;;;;;;;5119061;28;20235;-61
2023/01/05 07:05:59;;;;;;;19.23;13.33;;;;;;;;;;5118176;28;20275;-61
2023/01/05 07:08:28;;;;;;;17.20;12.80;;;;;;;;;;5106115;28;20208;-61
2023/01/05 07:10:56;;;;;;;15.80;12.87;;;;;;;;;;5119287;28;20664;-61
2023/01/05 07:13:24;;;;;;;18.53;12.97;;;;;;;;;;5119164;28;20664;-61
2023/01/05 07:15:56;;;;;;;16.77;12.93;;;;;;;;;;5118811;28;20244;-61
2023/01/05 07:18:27;;;;;;;22.00;13.93;;;;;;;;;;5119506;28;20562;-61
2023/01/05 07:20:55;;;;;;;18.70;13.60;;;;;;;;;;5112195;28;20256;-61
2023/01/05 07:23:23;;;;;;;19.17;13.27;;;;;;;;;;5117345;28;20216;-61
2023/01/05 07:25:51;;;;;;;17.57;12.53;;;;;;;;;;5108787;28;20243;-61
2023/01/05 07:28:19;;;;;;;19.13;12.60;;;;;;;;;;5118563;28;20200;-61
2023/01/05 07:30:51;;;;;;;21.27;13.20;;;;;;;;;;5118941;28;20212;-61
2023/01/05 07:33:20;;;;;;;15.53;12.40;;;;;;;;;;5118558;28;20236;-61
2023/01/05 07:35:48;;;;;;;19.40;13.67;;;;;;;;;;5118774;27;20231;-62
2023/01/05 07:38:16;;;;;;;15.90;11.93;;;;;;;;;;5117509;28;20257;-61
2023/01/05 07:40:45;;;;;;;18.50;13.30;;;;;;;;;;5115605;28;20201;-61
2023/01/05 07:43:13;;;;;;;18.13;13.23;;;;;;;;;;5113402;28;20224;-62
2023/01/05 07:45:41;;;;;;;18.23;12.63;;;;;;;;;;5118368;28;20209;-61
2023/01/05 07:48:09;;;;;;;16.30;11.73;;;;;;;;;;5118337;28;20212;-62
2023/01/05 07:50:38;;;;;;;16.13;12.70;;;;;;;;;;5118636;28;20250;-61
2023/01/05 07:53:06;;;;;;;19.03;13.80;;;;;;;;;;5118758;28;20264;-62
2023/01/05 07:55:34;;;;;;;19.13;14.30;;;;;;;;;;5108888;28;20749;-61
2023/01/05 07:58:06;;;;;;;19.90;13.90;;;;;;;;;;5113448;28;20274;-61
2023/01/05 08:00:34;;;;;;;20.47;13.67;;;;;;;;;;5105322;28;20198;-61
2023/01/05 08:03:03;;;;;;;17.53;13.40;;;;;;;;;;5115321;28;20251;-61
2023/01/05 08:05:33;;;;;;;21.70;14.73;;;;;;;;;;5117779;28;20204;-61
2023/01/05 08:08:03;;;;;;;16.20;13.13;;;;;;;;;;5113118;28;20200;-61
2023/01/05 08:10:31;;;;;;;15.77;12.10;;;;;;;;;;5110016;28;20279;-62
2023/01/05 08:15:48;;;;;;;18.10;13.17;;;;;;;;;;5100398;28;20751;-61
2023/01/05 08:18:18;;;;;;;17.97;13.93;;;;;;;;;;5109787;28;20276;-61
2023/01/05 08:20:50;;;;;;;18.60;14.13;;;;;;;;;;5115326;28;20239;-61
2023/01/05 08:23:19;;;;;;;19.93;13.93;;;;;;;;;;5117577;28;20235;-60
2023/01/05 08:25:53;;;;;;;21.50;15.63;;;;;;;;;;5104496;28;20241;-60
2023/01/05 08:28:21;;;;;;;20.93;14.77;;;;;;;;;;5117514;28;20626;-60
2023/01/05 08:30:49;;;;;;;20.60;15.00;;;;;;;;;;5117370;28;20192;-61
2023/01/05 08:33:17;;;;;;;21.53;15.10;;;;;;;;;;5114250;28;20221;-61
2023/01/05 08:35:45;;;;;;;21.70;15.10;;;;;;;;;;5108740;28;20252;-61
2023/01/05 08:38:13;;;;;;;21.17;14.60;;;;;;;;;;5117294;28;20217;-61
2023/01/05 08:40:43;;;;;;;19.67;14.43;;;;;;;;;;5122082;28;20209;-60
2023/01/05 08:43:11;;;;;;;17.60;13.90;;;;;;;;;;5121853;28;20568;-61
2023/01/05 08:45:39;;;;;;;20.60;15.53;;;;;;;;;;5121615;28;20203;-60
2023/01/05 08:48:08;;;;;;;21.43;14.83;;;;;;;;;;5107851;28;20313;-60
2023/01/05 08:50:37;;;;;;;21.50;14.47;;;;;;;;;;5122124;28;20208;-61
2023/01/05 08:53:05;;;;;;;20.90;14.57;;;;;;;;;;5111505;28;20220;-60
2023/01/05 08:55:36;;;;;;;20.83;14.17;;;;;;;;;;5117365;28;20220;-61
2023/01/05 08:58:06;;;;;;;22.37;14.23;;;;;;;;;;5121399;28;20580;-61
2023/01/05 09:00:34;;;;;;;21.20;15.40;;;;;;;;;;5121983;28;20275;-61
2023/01/05 09:03:02;;;;;;;30.27;16.10;;;;;;;;;;5121342;28;20233;-59
2023/01/05 09:05:31;;;;;;;21.90;15.43;;;;;;;;;;5119105;28;20660;-59
2023/01/05 09:07:59;;;;;;;21.70;15.80;;;;;;;;;;5121416;28;20208;-59
2023/01/05 09:10:27;;;;;;;23.97;16.63;;;;;;;;;;5119091;28;20224;-60
2023/01/05 09:12:55;;;;;;;17.60;14.33;;;;;;;;;;5108084;28;20256;-58
2023/01/05 09:15:24;;;;;;;22.47;14.37;;;;;;;;;;5121353;28;20631;-58
2023/01/05 09:17:53;;;;;;;22.67;14.37;;;;;;;;;;5116385;27;20197;-59
2023/01/05 09:20:21;;;;;;;20.63;14.70;;;;;;;;;;5120527;28;20197;-59
2023/01/05 09:22:49;;;;;;;18.07;13.70;;;;;;;;;;5108011;28;20221;-60
2023/01/05 09:25:17;;;;;;;19.83;14.53;;;;;;;;;;5121290;28;20236;-60
2023/01/05 09:27:45;;;;;;;18.43;13.70;;;;;;;;;;5109865;28;20244;-60
2023/01/05 09:30:16;;;;;;;21.77;13.90;;;;;;;;;;5121235;28;20205;-60
2023/01/05 09:32:45;;;;;;;26.03;13.73;;;;;;;;;;5121155;28;20237;-61
2023/01/05 09:35:13;;;;;;;18.70;14.27;;;;;;;;;;5119953;28;20628;-60
2023/01/05 09:37:42;;;;;;;19.83;15.23;;;;;;;;;;5120313;28;20703;-59
2023/01/05 09:40:12;;;;;;;22.07;14.57;;;;;;;;;;5121100;28;20265;-59
2023/01/05 09:42:43;;;;;;;23.80;14.53;;;;;;;;;;5119206;28;20285;-58
2023/01/05 09:45:12;;;;;;;19.33;14.97;;;;;;;;;;5118489;28;20265;-61
2023/01/05 09:47:44;;;;;;;24.93;14.60;;;;;;;;;;5118981;28;20197;-61
2023/01/05 09:50:18;;;;;;;19.53;13.67;;;;;;;;;;5119279;28;20262;-60
2023/01/05 09:52:47;;;;;;;20.90;15.20;;;;;;;;;;5120419;28;20224;-61
2023/01/05 09:55:16;;;;;;;19.27;14.57;;;;;;;;;;5120456;28;20672;-60
2023/01/05 09:57:50;;;;;;;20.33;15.03;;;;;;;;;;5120086;28;20233;-60
2023/01/05 10:00:18;;;;;;;23.20;14.67;;;;;;;;;;5114203;28;20210;-60
2023/01/05 10:02:49;;;;;;;20.43;13.80;;;;;;;;;;5114868;28;20228;-61
2023/01/05 10:05:19;;;;;;;16.10;13.07;;;;;;;;;;5120336;28;20208;-61
2023/01/05 10:07:50;;;;;;;17.47;13.40;;;;;;;;;;5119801;28;20201;-61
2023/01/05 10:10:23;;;;;;;21.47;14.13;;;;;;;;;;5117987;28;20619;-61
2023/01/05 10:13:05;;;;;;;19.37;13.73;;;;;;;;;;5108964;28;20220;-60
2023/01/05 10:15:42;;;;;;;20.03;13.47;;;;;;;;;;5120024;28;20196;-61
2023/01/05 10:18:12;;;;;;;19.53;14.40;;;;;;;;;;5117034;28;20213;-60
2023/01/05 10:20:54;;;;;;;18.83;14.07;;;;;;;;;;5115806;28;20648;-61
2023/01/05 10:23:32;;;;;;;19.73;14.70;;;;;;;;;;5114261;28;20224;-60
2023/01/05 10:26:08;;;;;;;21.33;15.17;;;;;;;;;;5120310;28;20232;-61
2023/01/05 10:28:41;;;;;;;21.87;15.37;;;;;;;;;;5115216;28;20668;-61
2023/01/05 10:31:18;;;;;;;21.97;15.43;;;;;;;;;;5119935;28;20201;-61
2023/01/05 10:33:51;;;;;;;21.37;14.60;;;;;;;;;;5117696;28;20307;-61
2023/01/05 10:36:52;;;;;;;22.43;16.27;;;;;;;;;;5110285;28;20585;-60
2023/01/05 10:39:54;;;;;;;23.60;15.43;;;;;;;;;;5099186;28;20193;-61
2023/01/05 10:42:30;;;;;;;21.13;15.33;;;;;;;;;;5118224;28;20210;-61
2023/01/05 10:45:01;;;;;;;23.20;16.13;;;;;;;;;;5118969;28;20200;-61
2023/01/05 10:47:31;;;;;;;25.80;17.93;;;;;;;;;;5119753;28;20204;-61
2023/01/05 10:50:00;;;;;;;24.80;15.70;;;;;;;;;;5119410;28;20907;-61
2023/01/05 10:52:29;;;;;;;22.80;17.10;;;;;;;;;;5113274;28;20257;-61
2023/01/05 10:54:58;;;;;;;24.70;16.40;;;;;;;;;;5118466;28;20200;-61
2023/01/05 10:57:41;;;;;;;22.43;15.80;;;;;;;;;;5119333;28;20307;-62
2023/01/05 11:00:14;;;;;;;19.97;15.07;;;;;;;;;;5119169;28;20735;-61
2023/01/05 11:02:43;;;;;;;24.63;16.80;;;;;;;;;;5118131;28;20684;-60
2023/01/05 11:05:22;;;;;;;21.43;16.00;;;;;;;;;;5119260;28;20204;-60
2023/01/05 11:07:52;;;;;;;22.70;16.33;;;;;;;;;;5116299;28;20221;-60
2023/01/05 11:10:26;;;;;;;22.63;15.67;;;;;;;;;;5106556;28;20200;-60
2023/01/05 11:13:02;;;;;;;22.50;15.60;;;;;;;;;;5116769;28;20253;-60
2023/01/05 11:15:32;;;;;;;26.33;15.83;;;;;;;;;;5118898;28;20234;-60
2023/01/05 11:18:00;;;;;;;21.20;16.20;;;;;;;;;;5114790;28;20307;-60
2023/01/05 11:20:29;;;;;;;20.03;15.50;;;;;;;;;;5118265;28;20246;-60
2023/01/05 11:22:57;;;;;;;23.53;16.93;;;;;;;;;;5118268;28;20251;-60
2023/01/05 11:25:29;;;;;;;20.90;15.97;;;;;;;;;;5112172;28;20201;-61
2023/01/05 11:28:09;;;;;;;21.13;15.50;;;;;;;;;;5106178;28;20204;-60
2023/01/05 11:30:38;;;;;;;24.53;16.10;;;;;;;;;;5118172;28;20205;-60
2023/01/05 11:33:13;;;;;;;24.10;16.70;;;;;;;;;;5108577;28;20309;-61
2023/01/05 11:35:49;;;;;;;26.23;16.27;;;;;;;;;;5104877;28;20205;-60
2023/01/05 11:38:21;;;;;;;21.77;16.77;;;;;;;;;;5112198;28;20217;-60
2023/01/05 11:40:49;;;;;;;27.03;17.73;;;;;;;;;;5115615;28;20200;-60
2023/01/05 11:43:19;;;;;;;23.03;15.37;;;;;;;;;;5115059;28;20244;-60
2023/01/05 11:45:49;;;;;;;20.53;16.43;;;;;;;;;;5115125;28;20203;-61
2023/01/05 11:48:19;;;;;;;27.37;17.93;;;;;;;;;;5116429;28;20193;-60
2023/01/05 11:50:49;;;;;;;22.00;16.27;;;;;;;;;;5117695;28;20215;-60
2023/01/05 11:53:24;;;;;;;45.13;31.33;;;;;;;;;;5115017;28;20248;-60
2023/01/05 11:55:59;;;;;;;59.17;37.50;;;;;;;;;;5111671;28;20201;-60
2023/01/05 11:58:31;;;;;;;32.37;22.03;;;;;;;;;;5117704;28;20722;-59
2023/01/05 12:01:06;;;;;;;29.37;17.73;;;;;;;;;;5117218;28;20201;-59
2023/01/05 12:03:44;;;;;;;20.47;16.53;;;;;;;;;;5113094;28;20216;-60
2023/01/05 12:06:20;;;;;;;19.33;15.40;;;;;;;;;;5110068;28;20254;-60
2023/01/05 12:08:53;;;;;;;30.53;17.10;;;;;;;;;;5117048;28;20300;-60
2023/01/05 12:11:22;;;;;;;18.33;15.63;;;;;;;;;;5112086;28;20201;-61
2023/01/05 12:13:58;;;;;;;28.27;20.27;;;;;;;;;;5112548;28;20274;-59
2023/01/05 12:16:33;;;;;;;35.40;25.70;;;;;;;;;;5106076;28;20197;-60
2023/01/05 12:19:07;;;;;;;22.73;17.00;;;;;;;;;;5116333;28;20212;-61
2023/01/05 12:21:38;;;;;;;25.07;17.20;;;;;;;;;;5115681;28;20215;-60
2023/01/05 12:24:16;;;;;;;20.20;15.53;;;;;;;;;;5117931;28;20221;-61
2023/01/05 12:26:50;;;;;;;23.70;16.53;;;;;;;;;;5112230;28;20200;-60
2023/01/05 12:29:29;;;;;;;23.27;15.43;;;;;;;;;;5113705;28;20210;-60
2023/01/05 12:32:36;;;;;;;21.93;15.40;;;;;;;;;;5116376;28;20204;-61
2023/01/05 12:35:45;;;;;;;18.47;15.20;;;;;;;;;;5117440;28;20211;-61
2023/01/05 12:38:24;;;;;;;20.57;15.63;;;;;;;;;;5117478;28;20231;-60
2023/01/05 12:41:03;;;;;;;19.83;13.97;;;;;;;;;;5117604;28;20563;-60
2023/01/05 12:43:37;;;;;;;19.07;14.20;;;;;;;;;;5116350;28;20224;-60
2023/01/05 12:46:17;;;;;;;18.73;14.00;;;;;;;;;;5115113;28;20201;-60
2023/01/05 12:48:47;;;;;;;20.37;15.20;;;;;;;;;;5116225;28;20193;-60
2023/01/05 12:51:18;;;;;;;21.17;15.17;;;;;;;;;;5117122;28;20196;-60
2023/01/05 12:53:50;;;;;;;19.90;14.53;;;;;;;;;;5116706;28;20229;-60
2023/01/05 12:56:22;;;;;;;19.53;14.70;;;;;;;;;;5109730;28;20205;-60
2023/01/05 12:59:04;;;;;;;17.83;13.30;;;;;;;;;;5113350;28;20668;-60
2023/01/05 13:01:34;;;;;;;24.30;17.20;;;;;;;;;;5117489;28;20207;-61
2023/01/05 13:04:04;;;;;;;35.23;25.43;;;;;;;;;;5117667;28;20317;-61
2023/01/05 13:06:37;;;;;;;22.80;15.23;;;;;;;;;;5117099;28;20233;-60
2023/01/05 13:09:09;;;;;;;22.47;13.87;;;;;;;;;;5117399;28;20240;-59
2023/01/05 13:11:40;;;;;;;18.47;13.23;;;;;;;;;;5117481;28;20240;-61
2023/01/05 13:14:13;;;;;;;21.37;13.83;;;;;;;;;;5116819;28;20274;-61
2023/01/05 13:16:44;;;;;;;20.37;13.67;;;;;;;;;;5117563;28;20229;-61
2023/01/05 13:19:14;;;;;;;20.47;13.73;;;;;;;;;;5117162;28;20711;-61
2023/01/05 13:21:44;;;;;;;18.87;12.13;;;;;;;;;;5117278;28;20200;-61
2023/01/05 13:24:16;;;;;;;17.43;11.47;;;;;;;;;;5118785;28;20233;-61
2023/01/05 13:26:44;;;;;;;17.27;12.27;;;;;;;;;;5121133;28;20226;-61
2023/01/05 13:29:16;;;;;;;16.30;12.07;;;;;;;;;;5111553;27;20217;-61
2023/01/05 13:31:51;;;;;;;15.20;10.90;;;;;;;;;;5113519;28;20204;-61
2023/01/05 13:34:33;;;;;;;16.50;11.90;;;;;;;;;;5119338;27;20259;-61
2023/01/05 13:37:08;;;;;;;12.13;10.43;;;;;;;;;;5101734;28;20228;-61
2023/01/05 13:39:43;;;;;;;13.17;11.00;;;;;;;;;;5119329;28;20231;-61
2023/01/05 13:42:17;;;;;;;15.87;11.47;;;;;;;;;;5119864;28;20320;-61
2023/01/05 13:44:58;;;;;;;16.67;11.13;;;;;;;;;;5121181;28;20211;-61
2023/01/05 13:47:44;;;;;;;17.90;11.33;;;;;;;;;;5121097;28;20288;-61
2023/01/05 13:50:36;;;;;;;12.00;10.73;;;;;;;;;;5119798;28;20547;-61
2023/01/05 13:53:06;;;;;;;15.90;10.33;;;;;;;;;;5100321;28;20297;-61
2023/01/05 13:55:37;;;;;;;15.57;10.17;;;;;;;;;;5120924;28;20200;-61
2023/01/05 13:58:06;;;;;;;14.93;9.60;;;;;;;;;;5120612;28;20268;-61
2023/01/05 14:00:35;;;;;;;12.07;9.03;;;;;;;;;;5120748;28;20667;-61
2023/01/05 14:03:07;;;;;;;9.33;8.33;;;;;;;;;;5120496;28;20224;-61
2023/01/05 14:05:41;;;;;;;10.07;8.53;;;;;;;;;;5120855;28;20232;-61
2023/01/05 14:08:17;;;;;;;12.67;8.70;;;;;;;;;;5119361;28;20615;-61
2023/01/05 14:11:05;;;;;;;13.80;9.13;;;;;;;;;;5120489;28;20679;-61
2023/01/05 14:13:47;;;;;;;12.80;9.67;;;;;;;;;;5127739;27;20770;-61
2023/01/05 14:16:33;;;;;;;12.20;9.50;;;;;;;;;;5120911;27;20243;-61
2023/01/05 14:19:11;;;;;;;11.43;8.77;;;;;;;;;;5120056;28;20571;-61
2023/01/05 14:21:59;;;;;;;11.07;8.53;;;;;;;;;;5120443;27;20216;-61
2023/01/05 14:24:28;;;;;;;9.70;8.30;;;;;;;;;;5119594;27;20224;-61
2023/01/05 14:27:01;;;;;;;10.97;9.33;;;;;;;;;;5120467;28;20310;-61
2023/01/05 14:29:47;;;;;;;10.90;8.20;;;;;;;;;;5120203;28;20200;-61
2023/01/05 14:32:20;;;;;;;10.10;8.03;;;;;;;;;;5120373;28;20232;-61
2023/01/05 14:34:50;;;;;;;8.90;8.00;;;;;;;;;;5120270;28;20699;-61
2023/01/05 14:37:21;;;;;;;12.43;9.10;;;;;;;;;;5119356;28;20201;-61
2023/01/05 14:39:52;;;;;;;12.37;8.10;;;;;;;;;;5120069;28;20232;-61
2023/01/05 14:42:28;;;;;;;12.53;9.50;;;;;;;;;;5119008;27;20292;-61
2023/01/05 14:44:59;;;;;;;12.30;8.93;;;;;;;;;;5119691;28;20207;-60
2023/01/05 14:47:35;;;;;;;9.37;8.40;;;;;;;;;;5120118;28;20209;-60
2023/01/05 14:50:06;;;;;;;12.60;7.77;;;;;;;;;;5120736;28;20203;-61
2023/01/05 14:52:53;;;;;;;9.53;7.87;;;;;;;;;;5120311;28;20205;-61
2023/01/05 14:55:23;;;;;;;11.87;7.83;;;;;;;;;;5120929;28;20233;-61
2023/01/05 14:58:05;;;;;;;12.23;8.30;;;;;;;;;;5120187;28;20233;-61
2023/01/05 15:00:39;;;;;;;13.23;9.23;;;;;;;;;;5115072;28;20607;-61
2023/01/05 15:03:31;;;;;;;12.07;8.53;;;;;;;;;;5120231;28;20756;-61
2023/01/05 15:06:06;;;;;;;9.60;7.67;;;;;;;;;;5101387;28;20568;-61
2023/01/05 15:09:08;;;;;;;8.87;6.77;;;;;;;;;;5120287;28;20208;-61
2023/01/05 15:11:52;;;;;;;8.30;7.30;;;;;;;;;;5120294;28;20208;-61
2023/01/05 15:14:33;;;;;;;8.03;6.77;;;;;;;;;;5117466;28;20263;-61
2023/01/05 15:17:23;;;;;;;9.97;6.60;;;;;;;;;;5119117;28;20208;-61